createdAt,value
2018-07-22T00:00:52.970Z,7.70
2018-07-22T00:03:21.407Z,6.70
2018-07-22T00:05:49.834Z,6.03
2018-07-22T00:08:18.342Z,7.17
2018-07-22T00:10:46.935Z,7.80
2018-07-22T00:13:15.331Z,7.27
2018-07-22T00:15:43.852Z,7.33
2018-07-22T00:18:12.309Z,7.80
2018-07-22T00:20:40.800Z,7.30
2018-07-22T00:23:09.255Z,7.00
2018-07-22T00:25:37.691Z,6.60
2018-07-22T00:28:06.143Z,6.80
2018-07-22T00:30:34.839Z,8.37
2018-07-22T00:33:03.320Z,9.13
2018-07-22T00:35:31.787Z,7.00
2018-07-22T00:38:00.661Z,9.37
2018-07-22T00:40:29.183Z,8.13
2018-07-22T00:42:57.647Z,7.80
2018-07-22T00:45:26.321Z,7.83
2018-07-22T00:47:54.819Z,7.60
2018-07-22T00:50:23.251Z,6.70
2018-07-22T00:52:51.815Z,7.70
2018-07-22T00:55:20.351Z,7.17
2018-07-22T00:57:48.809Z,8.63
2018-07-22T01:00:17.309Z,7.67
2018-07-22T01:02:45.719Z,6.87
2018-07-22T01:05:14.194Z,7.17
2018-07-22T01:07:42.639Z,8.83
2018-07-22T01:10:11.072Z,7.10
2018-07-22T01:12:39.485Z,8.00
2018-07-22T01:15:08.172Z,7.87
2018-07-22T01:17:36.678Z,6.83
2018-07-22T01:20:06.019Z,9.50
2018-07-22T01:22:34.529Z,7.80
2018-07-22T01:25:03.080Z,7.10
2018-07-22T01:27:31.483Z,6.50
2018-07-22T01:29:59.975Z,7.47
2018-07-22T01:32:28.455Z,8.70
2018-07-22T01:34:56.944Z,7.70
2018-07-22T01:37:27.890Z,8.47
2018-07-22T01:39:56.420Z,8.57
2018-07-22T01:42:24.887Z,8.20
2018-07-22T01:44:53.611Z,8.53
2018-07-22T01:47:22.104Z,8.83
2018-07-22T01:49:50.587Z,8.73
2018-07-22T01:52:19.298Z,8.73
2018-07-22T01:54:47.808Z,7.93
2018-07-22T01:57:16.185Z,7.70
2018-07-22T01:59:44.669Z,8.20
2018-07-22T02:02:13.179Z,8.97
2018-07-22T02:04:41.784Z,7.67
2018-07-22T02:07:10.183Z,8.40
2018-07-22T02:09:38.587Z,8.60
2018-07-22T02:12:07.039Z,8.37
2018-07-22T02:14:35.686Z,8.27
2018-07-22T02:17:04.232Z,7.47
2018-07-22T02:19:32.695Z,7.17
2018-07-22T02:22:01.479Z,7.77
2018-07-22T02:24:30.008Z,8.40
2018-07-22T02:26:58.483Z,7.70
2018-07-22T02:29:27.173Z,7.77
2018-07-22T02:31:55.604Z,8.30
2018-07-22T02:34:24.067Z,7.60
2018-07-22T02:36:52.906Z,9.17
2018-07-22T02:39:21.315Z,9.23
2018-07-22T02:41:49.760Z,7.57
2018-07-22T02:44:18.279Z,7.73
2018-07-22T02:46:46.763Z,7.70
2018-07-22T02:49:15.289Z,8.03
2018-07-22T02:51:43.772Z,8.20
2018-07-22T02:54:12.191Z,7.80
2018-07-22T02:56:40.866Z,6.30
2018-07-22T02:59:09.427Z,6.87
2018-07-22T03:01:38.907Z,6.50
2018-07-22T03:04:08.260Z,8.33
2018-07-22T03:06:36.939Z,8.00
2018-07-22T03:09:07.731Z,6.60
2018-07-22T03:11:36.212Z,9.17
2018-07-22T03:14:04.767Z,7.47
2018-07-22T03:16:33.303Z,7.30
2018-07-22T03:19:01.740Z,7.23
2018-07-22T03:21:30.291Z,7.13
2018-07-22T03:23:59.119Z,7.60
2018-07-22T03:26:27.756Z,8.37
2018-07-22T03:28:56.300Z,8.17
2018-07-22T03:31:24.739Z,7.67
2018-07-22T03:33:53.434Z,7.60
2018-07-22T03:36:21.968Z,8.37
2018-07-22T03:38:50.447Z,8.00
2018-07-22T03:41:19.331Z,7.97
2018-07-22T03:43:47.743Z,7.77
2018-07-22T03:46:16.134Z,7.73
2018-07-22T03:48:44.810Z,8.30
2018-07-22T03:51:13.218Z,8.40
2018-07-22T03:53:41.651Z,8.10
2018-07-22T03:56:10.510Z,7.17
2018-07-22T03:58:38.919Z,7.03
2018-07-22T04:01:07.651Z,8.17
2018-07-22T04:03:36.295Z,8.07
2018-07-22T04:06:04.671Z,7.97
2018-07-22T04:08:33.111Z,8.03
2018-07-22T04:11:01.616Z,7.70
2018-07-22T04:13:30.075Z,7.40
2018-07-22T04:15:58.471Z,7.27
2018-07-22T04:18:26.994Z,7.60
2018-07-22T04:20:55.431Z,7.97
2018-07-22T04:23:23.999Z,7.67
2018-07-22T04:25:52.747Z,9.50
2018-07-22T04:28:21.295Z,8.03
2018-07-22T04:30:49.692Z,8.03
2018-07-22T04:33:18.321Z,7.93
2018-07-22T04:35:46.828Z,8.20
2018-07-22T04:38:15.326Z,8.13
2018-07-22T04:40:43.742Z,8.37
2018-07-22T04:43:12.211Z,8.10
2018-07-22T04:45:40.703Z,8.07
2018-07-22T04:48:09.210Z,8.67
2018-07-22T04:50:37.727Z,8.20
2018-07-22T04:53:06.243Z,8.60
2018-07-22T04:55:34.823Z,7.93
2018-07-22T04:58:03.290Z,8.97
2018-07-22T05:00:31.718Z,9.00
2018-07-22T05:03:00.221Z,9.30
2018-07-22T05:05:28.659Z,8.30
2018-07-22T05:07:57.204Z,8.63
2018-07-22T05:10:25.623Z,8.10
2018-07-22T05:12:54.166Z,8.93
2018-07-22T05:15:22.775Z,8.70
2018-07-22T05:17:51.415Z,8.50
2018-07-22T05:20:20.057Z,8.80
2018-07-22T05:22:48.535Z,8.60
2018-07-22T05:25:17.043Z,9.00
2018-07-22T05:27:45.475Z,8.43
2018-07-22T05:30:13.907Z,8.50
2018-07-22T05:32:42.679Z,8.90
2018-07-22T05:35:11.115Z,9.70
2018-07-22T05:37:39.612Z,9.43
2018-07-22T05:40:08.151Z,9.70
2018-07-22T05:42:36.595Z,10.70
2018-07-22T05:45:05.098Z,10.70
2018-07-22T05:47:33.599Z,9.10
2018-07-22T05:50:02.114Z,10.90
2018-07-22T05:52:30.590Z,10.50
2018-07-22T05:54:59.043Z,10.20
2018-07-22T05:57:27.563Z,9.33
2018-07-22T05:59:55.975Z,10.67
2018-07-22T06:02:24.499Z,11.00
2018-07-22T06:04:53.056Z,11.57
2018-07-22T06:07:21.532Z,10.70
2018-07-22T06:09:49.995Z,12.57
2018-07-22T06:12:18.448Z,11.80
2018-07-22T06:14:46.974Z,10.27
2018-07-22T06:17:15.472Z,10.97
2018-07-22T06:19:43.916Z,11.40
2018-07-22T06:22:12.335Z,11.50
2018-07-22T06:24:40.987Z,13.10
2018-07-22T06:27:09.844Z,13.10
2018-07-22T06:29:38.666Z,10.77
2018-07-22T06:32:07.783Z,13.60
2018-07-22T06:34:36.298Z,13.10
2018-07-22T06:37:04.815Z,14.70
2018-07-22T06:39:33.315Z,13.23
2018-07-22T06:42:01.728Z,13.20
2018-07-22T06:44:30.132Z,14.27
2018-07-22T06:46:58.927Z,11.83
2018-07-22T06:49:27.339Z,12.07
2018-07-22T06:51:55.782Z,13.87
2018-07-22T06:54:24.363Z,13.87
2018-07-22T06:56:52.710Z,13.73
2018-07-22T06:59:21.256Z,14.67
2018-07-22T07:01:49.795Z,15.00
2018-07-22T07:04:18.250Z,13.20
2018-07-22T07:06:46.759Z,13.93
2018-07-22T07:09:15.223Z,12.80
2018-07-22T07:11:43.731Z,15.60
2018-07-22T07:14:12.347Z,14.70
2018-07-22T07:16:41.001Z,14.70
2018-07-22T07:19:09.424Z,14.03
2018-07-22T07:21:37.880Z,15.93
2018-07-22T07:24:06.455Z,14.30
2018-07-22T07:26:34.979Z,13.80
2018-07-22T07:29:03.568Z,14.90
2018-07-22T07:31:32.111Z,14.53
2018-07-22T07:34:00.551Z,15.20
2018-07-22T07:36:29.091Z,14.27
2018-07-22T07:38:57.735Z,13.67
2018-07-22T07:41:26.179Z,13.77
2018-07-22T07:43:55.251Z,15.20
2018-07-22T07:46:23.787Z,14.80
2018-07-22T07:48:52.265Z,14.10
2018-07-22T07:51:20.687Z,15.37
2018-07-22T07:53:49.407Z,15.40
2018-07-22T07:56:17.946Z,15.50
2018-07-22T07:58:46.351Z,14.00
2018-07-22T08:01:14.991Z,13.90
2018-07-22T08:03:43.399Z,13.47
2018-07-22T08:06:12.084Z,12.90
2018-07-22T08:08:40.645Z,14.40
2018-07-22T08:11:09.184Z,13.70
2018-07-22T08:13:37.643Z,15.23
2018-07-22T08:16:06.575Z,16.00
2018-07-22T08:18:35.059Z,17.20
2018-07-22T08:21:03.521Z,15.50
2018-07-22T08:23:31.947Z,17.00
2018-07-22T08:26:00.507Z,15.40
2018-07-22T08:28:40.425Z,16.00
2018-07-22T08:31:08.931Z,13.67
2018-07-22T08:33:37.434Z,14.10
2018-07-22T08:36:06.083Z,13.90
2018-07-22T08:38:34.664Z,13.57
2018-07-22T08:41:03.164Z,13.30
2018-07-22T08:43:31.783Z,15.40
2018-07-22T08:46:00.229Z,11.63
2018-07-22T08:48:28.699Z,12.80
2018-07-22T08:50:57.391Z,12.47
2018-07-22T08:53:25.812Z,11.63
2018-07-22T08:55:54.279Z,11.07
2018-07-22T08:58:22.839Z,10.83
2018-07-22T09:00:51.271Z,13.70
2018-07-22T09:03:19.764Z,12.60
2018-07-22T09:05:48.439Z,13.00
2018-07-22T09:08:17.001Z,13.00
2018-07-22T09:10:45.479Z,11.80
2018-07-22T09:13:14.016Z,12.63
2018-07-22T09:15:42.531Z,11.83
2018-07-22T09:18:11.114Z,11.37
2018-07-22T09:20:39.967Z,10.97
2018-07-22T09:23:08.412Z,14.60
2018-07-22T09:25:36.868Z,16.17
2018-07-22T09:28:05.497Z,13.33
2018-07-22T09:30:33.942Z,14.37
2018-07-22T09:33:02.423Z,14.97
2018-07-22T09:35:30.924Z,13.50
2018-07-22T09:37:59.374Z,16.17
2018-07-22T09:40:27.783Z,14.97
2018-07-22T09:42:56.432Z,17.80
2018-07-22T09:45:24.919Z,18.17
2018-07-22T09:47:53.382Z,18.13
2018-07-22T09:50:22.059Z,15.77
2018-07-22T09:52:50.607Z,16.73
2018-07-22T09:55:19.107Z,16.63
2018-07-22T09:57:47.619Z,14.70
2018-07-22T10:00:20.173Z,15.00
2018-07-22T10:02:48.659Z,14.97
2018-07-22T10:05:17.127Z,13.30
2018-07-22T10:07:45.615Z,13.30
2018-07-22T10:10:14.223Z,14.80
2018-07-22T10:12:42.620Z,13.03
2018-07-22T10:15:11.059Z,13.30
2018-07-22T10:17:39.813Z,11.03
2018-07-22T10:20:08.229Z,10.27
2018-07-22T10:22:36.707Z,9.40
2018-07-22T10:25:05.571Z,9.73
2018-07-22T10:27:33.988Z,9.13
2018-07-22T10:30:02.475Z,8.97
2018-07-22T10:32:31.274Z,11.63
2018-07-22T10:34:59.782Z,9.20
2018-07-22T10:37:28.306Z,10.43
2018-07-22T10:39:56.959Z,11.53
2018-07-22T10:42:25.639Z,13.77
2018-07-22T10:44:54.408Z,12.07
2018-07-22T10:47:23.139Z,12.40
2018-07-22T10:49:52.031Z,10.87
2018-07-22T10:52:20.840Z,10.10
2018-07-22T10:54:49.666Z,11.10
2018-07-22T10:57:18.187Z,11.47
2018-07-22T10:59:46.698Z,9.90
2018-07-22T11:02:15.273Z,13.40
2018-07-22T11:04:43.704Z,11.17
2018-07-22T11:07:12.187Z,8.70
2018-07-22T11:09:40.807Z,9.73
2018-07-22T11:12:09.284Z,11.00
2018-07-22T11:14:37.807Z,14.20
2018-07-22T11:17:06.275Z,12.90
2018-07-22T11:19:34.747Z,12.83
2018-07-22T11:22:03.211Z,12.00
2018-07-22T11:24:32.070Z,11.90
2018-07-22T11:27:00.521Z,14.63
2018-07-22T11:29:28.955Z,11.30
2018-07-22T11:31:57.490Z,11.37
2018-07-22T11:34:25.902Z,12.27
2018-07-22T11:36:54.447Z,12.90
2018-07-22T11:39:22.908Z,9.60
2018-07-22T11:41:51.379Z,9.03
2018-07-22T11:44:19.864Z,9.40
2018-07-22T11:46:48.344Z,10.20
2018-07-22T11:49:16.847Z,8.80
2018-07-22T11:51:45.263Z,8.73
2018-07-22T11:54:14.117Z,9.20
2018-07-22T11:56:42.526Z,9.10
2018-07-22T11:59:10.934Z,8.70
2018-07-22T12:01:39.619Z,8.80
2018-07-22T12:04:08.002Z,9.23
2018-07-22T12:06:36.419Z,8.97
2018-07-22T12:09:07.611Z,9.60
2018-07-22T12:11:36.108Z,8.17
2018-07-22T12:14:04.689Z,7.90
2018-07-22T12:16:33.329Z,7.87
2018-07-22T12:19:01.779Z,8.03
2018-07-22T12:21:30.341Z,7.50
2018-07-22T12:23:58.754Z,8.70
2018-07-22T12:26:27.144Z,7.60
2018-07-22T12:28:55.643Z,8.70
2018-07-22T12:31:24.304Z,10.00
2018-07-22T12:33:52.696Z,9.83
2018-07-22T12:36:21.107Z,9.63
2018-07-22T12:38:49.886Z,9.73
2018-07-22T12:41:18.307Z,10.50
2018-07-22T12:43:46.810Z,9.47
2018-07-22T12:46:15.417Z,10.53
2018-07-22T12:48:43.916Z,10.70
2018-07-22T12:51:12.363Z,9.10
2018-07-22T12:53:40.864Z,7.43
2018-07-22T12:56:09.243Z,6.90
2018-07-22T12:58:37.785Z,8.60
2018-07-22T13:01:06.319Z,7.13
2018-07-22T13:03:34.758Z,8.00
2018-07-22T13:06:03.262Z,11.50
2018-07-22T13:08:31.691Z,9.13
2018-07-22T13:11:00.107Z,6.30
2018-07-22T13:13:28.543Z,7.40
2018-07-22T13:15:57.395Z,6.83
2018-07-22T13:18:25.808Z,6.50
2018-07-22T13:20:54.220Z,6.83
2018-07-22T13:23:22.745Z,6.90
2018-07-22T13:25:51.180Z,6.40
2018-07-22T13:28:19.737Z,6.83
2018-07-22T13:30:48.239Z,6.97
2018-07-22T13:33:16.671Z,7.60
2018-07-22T13:35:45.197Z,6.53
2018-07-22T13:38:13.869Z,6.60
2018-07-22T13:40:42.367Z,8.37
2018-07-22T13:43:10.855Z,6.93
2018-07-22T13:45:39.335Z,7.60
2018-07-22T13:48:07.851Z,8.47
2018-07-22T13:50:36.344Z,6.60
2018-07-22T13:53:04.859Z,7.43
2018-07-22T13:55:33.343Z,7.07
2018-07-22T13:58:01.837Z,7.30
2018-07-22T14:00:30.441Z,6.03
2018-07-22T14:02:58.933Z,7.10
2018-07-22T14:05:27.407Z,7.07
2018-07-22T14:07:56.016Z,6.73
2018-07-22T14:10:24.491Z,7.73
2018-07-22T14:12:52.991Z,6.97
2018-07-22T14:15:21.399Z,6.47
2018-07-22T14:17:49.931Z,7.03
2018-07-22T14:20:18.307Z,6.40
2018-07-22T14:22:46.950Z,6.97
2018-07-22T14:25:15.359Z,6.50
2018-07-22T14:27:43.879Z,6.93
2018-07-22T14:30:12.779Z,7.03
2018-07-22T14:32:41.231Z,6.60
2018-07-22T14:35:09.773Z,5.93
2018-07-22T14:37:38.261Z,6.43
2018-07-22T14:40:06.714Z,6.60
2018-07-22T14:42:35.317Z,7.03
2018-07-22T14:45:03.923Z,7.40
2018-07-22T14:47:32.467Z,6.40
2018-07-22T14:50:00.923Z,7.13
2018-07-22T14:52:29.475Z,7.43
2018-07-22T14:54:57.858Z,6.37
2018-07-22T14:57:26.271Z,6.90
2018-07-22T14:59:54.954Z,7.93
2018-07-22T15:02:23.400Z,10.63
2018-07-22T15:04:51.899Z,10.03
2018-07-22T15:07:20.646Z,10.20
2018-07-22T15:09:49.191Z,11.00
2018-07-22T15:12:17.685Z,10.40
2018-07-22T15:14:46.189Z,11.70
2018-07-22T15:17:14.663Z,11.87
2018-07-22T15:19:43.135Z,12.40
2018-07-22T15:22:11.708Z,12.23
2018-07-22T15:24:40.123Z,11.63
2018-07-22T15:27:08.724Z,12.10
2018-07-22T15:29:37.501Z,11.80
2018-07-22T15:32:05.963Z,10.13
2018-07-22T15:34:34.474Z,10.20
2018-07-22T15:37:03.139Z,10.70
2018-07-22T15:39:31.687Z,9.00
2018-07-22T15:42:00.214Z,9.40
2018-07-22T15:44:29.007Z,11.73
2018-07-22T15:46:57.443Z,9.37
2018-07-22T15:49:26.009Z,9.57
2018-07-22T15:51:54.829Z,8.27
2018-07-22T15:54:23.315Z,8.77
2018-07-22T15:56:51.727Z,8.87
2018-07-22T15:59:20.358Z,8.50
2018-07-22T16:01:48.754Z,8.20
2018-07-22T16:04:17.562Z,8.10
2018-07-22T16:06:45.983Z,8.10
2018-07-22T16:09:14.454Z,7.47
2018-07-22T16:11:43.591Z,7.40
2018-07-22T16:14:12.237Z,7.30
2018-07-22T16:16:40.875Z,7.53
2018-07-22T16:19:09.347Z,7.87
2018-07-22T16:21:37.857Z,8.20
2018-07-22T16:24:06.360Z,7.83
2018-07-22T16:26:34.862Z,7.43
2018-07-22T16:29:03.311Z,9.40
2018-07-22T16:31:31.828Z,8.07
2018-07-22T16:34:00.332Z,7.57
2018-07-22T16:36:28.857Z,8.37
2018-07-22T16:38:57.428Z,7.80
2018-07-22T16:41:25.920Z,7.20
2018-07-22T16:43:54.564Z,8.20
2018-07-22T16:46:23.199Z,8.30
2018-07-22T16:48:51.727Z,8.87
2018-07-22T16:51:20.160Z,8.90
2018-07-22T16:53:48.747Z,8.63
2018-07-22T16:56:17.279Z,9.77
2018-07-22T16:58:45.775Z,8.23
2018-07-22T17:01:14.278Z,8.70
2018-07-22T17:03:42.767Z,9.50
2018-07-22T17:06:11.519Z,9.30
2018-07-22T17:08:39.939Z,8.20
2018-07-22T17:11:08.446Z,8.90
2018-07-22T17:13:36.955Z,7.50
2018-07-22T17:16:05.762Z,6.90
2018-07-22T17:18:34.213Z,7.43
2018-07-22T17:21:02.934Z,7.87
2018-07-22T17:23:31.946Z,7.10
2018-07-22T17:26:00.552Z,7.63
2018-07-22T17:28:29.702Z,8.23
2018-07-22T17:30:58.234Z,10.83
2018-07-22T17:33:26.650Z,9.47
2018-07-22T17:35:55.303Z,9.00
2018-07-22T17:38:23.807Z,9.33
2018-07-22T17:40:52.203Z,8.90
2018-07-22T17:43:20.833Z,9.93
2018-07-22T17:45:49.404Z,10.83
2018-07-22T17:48:17.891Z,9.63
2018-07-22T17:50:46.767Z,9.70
2018-07-22T17:53:15.192Z,9.73
2018-07-22T17:55:43.587Z,8.83
2018-07-22T17:58:12.044Z,9.10
2018-07-22T18:00:40.483Z,8.90
2018-07-22T18:03:21.308Z,9.03
2018-07-22T18:05:50.304Z,9.70
2018-07-22T18:08:19.091Z,8.93
2018-07-22T18:10:47.938Z,8.77
2018-07-22T18:13:16.815Z,9.33
2018-07-22T18:15:45.295Z,8.17
2018-07-22T18:18:14.668Z,9.07
2018-07-22T18:20:44.003Z,8.07
2018-07-22T18:23:12.545Z,9.23
2018-07-22T18:25:42.284Z,9.30
2018-07-22T18:28:10.747Z,8.20
2018-07-22T18:30:39.147Z,8.57
2018-07-22T18:33:07.871Z,7.70
2018-07-22T18:35:36.427Z,9.33
2018-07-22T18:38:04.953Z,7.57
2018-07-22T18:40:33.587Z,7.87
2018-07-22T18:43:01.999Z,7.00
2018-07-22T18:45:30.449Z,7.60
2018-07-22T18:47:59.019Z,7.77
2018-07-22T18:50:27.487Z,7.07
2018-07-22T18:52:55.907Z,9.07
2018-07-22T18:55:24.720Z,8.87
2018-07-22T18:57:53.253Z,8.50
2018-07-22T19:00:21.739Z,7.43
2018-07-22T19:02:50.411Z,8.53
2018-07-22T19:05:18.957Z,8.67
2018-07-22T19:07:47.436Z,8.63
2018-07-22T19:10:16.091Z,9.10
2018-07-22T19:12:44.542Z,8.50
2018-07-22T19:15:13.219Z,8.60
2018-07-22T19:17:41.890Z,10.00
2018-07-22T19:20:10.359Z,10.03
2018-07-22T19:22:38.835Z,9.70
2018-07-22T19:25:07.530Z,9.53
2018-07-22T19:27:36.006Z,8.90
2018-07-22T19:30:04.890Z,9.60
2018-07-22T19:32:33.567Z,9.90
2018-07-22T19:35:02.095Z,10.00
2018-07-22T19:37:30.559Z,10.33
2018-07-22T19:40:00.011Z,9.47
2018-07-22T19:42:28.451Z,10.97
2018-07-22T19:44:56.897Z,10.90
2018-07-22T19:47:25.559Z,10.47
2018-07-22T19:49:53.976Z,11.17
2018-07-22T19:52:22.493Z,10.33
2018-07-22T19:54:51.060Z,9.80
2018-07-22T19:57:19.560Z,10.13
2018-07-22T19:59:48.003Z,10.57
2018-07-22T20:02:16.641Z,9.20
2018-07-22T20:04:45.161Z,10.93
2018-07-22T20:07:13.641Z,10.97
2018-07-22T20:09:42.930Z,10.40
2018-07-22T20:12:11.363Z,11.70
2018-07-22T20:14:39.849Z,11.93
2018-07-22T20:17:08.511Z,10.50
2018-07-22T20:19:37.035Z,11.13
2018-07-22T20:22:05.506Z,11.50
2018-07-22T20:24:34.204Z,11.30
2018-07-22T20:27:02.720Z,10.73
2018-07-22T20:29:31.231Z,12.70
2018-07-22T20:31:59.895Z,12.70
2018-07-22T20:34:28.355Z,12.20
2018-07-22T20:36:56.789Z,11.80
2018-07-22T20:39:25.351Z,11.13
2018-07-22T20:41:53.930Z,11.30
2018-07-22T20:44:22.443Z,11.77
2018-07-22T20:46:51.199Z,11.17
2018-07-22T20:49:19.599Z,10.97
2018-07-22T20:51:48.075Z,12.97
2018-07-22T20:54:16.874Z,13.13
2018-07-22T20:56:45.389Z,11.27
2018-07-22T20:59:13.884Z,12.47
2018-07-22T21:01:42.414Z,11.63
2018-07-22T21:04:10.903Z,11.10
2018-07-22T21:06:39.416Z,12.43
2018-07-22T21:09:09.124Z,13.40
2018-07-22T21:11:49.475Z,10.90
2018-07-22T21:14:18.327Z,11.50
2018-07-22T21:16:46.784Z,11.87
2018-07-22T21:19:15.302Z,12.83
2018-07-22T21:21:43.895Z,13.10
2018-07-22T21:24:12.323Z,11.70
2018-07-22T21:26:40.884Z,11.90
2018-07-22T21:29:09.385Z,12.10
2018-07-22T21:31:37.791Z,12.77
2018-07-22T21:34:06.383Z,11.70
2018-07-22T21:36:34.962Z,12.10
2018-07-22T21:39:03.883Z,12.03
2018-07-22T21:41:32.411Z,12.60
2018-07-22T21:44:01.268Z,13.20
2018-07-22T21:46:29.791Z,11.83
2018-07-22T21:48:58.303Z,11.50
2018-07-22T21:51:26.787Z,13.20
2018-07-22T21:53:55.211Z,12.23
2018-07-22T21:56:23.824Z,12.77
2018-07-22T21:58:52.539Z,11.60
2018-07-22T22:01:20.971Z,13.30
2018-07-22T22:03:49.397Z,13.50
2018-07-22T22:06:17.966Z,14.47
2018-07-22T22:08:46.451Z,12.93
2018-07-22T22:11:14.923Z,13.20
2018-07-22T22:13:43.740Z,13.70
2018-07-22T22:16:12.259Z,14.33
2018-07-22T22:18:40.689Z,15.43
2018-07-22T22:21:09.664Z,15.00
2018-07-22T22:23:38.103Z,14.53
2018-07-22T22:26:06.503Z,13.77
2018-07-22T22:28:35.178Z,14.77
2018-07-22T22:31:03.599Z,13.37
2018-07-22T22:33:32.128Z,15.53
2018-07-22T22:36:00.739Z,13.60
2018-07-22T22:38:29.200Z,14.40
2018-07-22T22:40:57.677Z,15.13
2018-07-22T22:43:26.083Z,16.10
2018-07-22T22:45:54.586Z,13.30
2018-07-22T22:48:22.994Z,16.53
2018-07-22T22:50:51.619Z,15.57
2018-07-22T22:53:20.083Z,14.47
2018-07-22T22:55:48.505Z,16.50
2018-07-22T22:58:28.598Z,13.93
2018-07-22T23:00:57.131Z,15.10
2018-07-22T23:03:25.570Z,16.10
2018-07-22T23:05:54.265Z,14.13
2018-07-22T23:08:22.693Z,16.67
2018-07-22T23:10:51.124Z,16.27
2018-07-22T23:13:19.742Z,16.07
2018-07-22T23:15:48.188Z,16.97
2018-07-22T23:18:16.631Z,17.50
2018-07-22T23:20:45.355Z,16.40
2018-07-22T23:23:13.839Z,17.33
2018-07-22T23:25:42.356Z,17.40
2018-07-22T23:28:10.871Z,16.50
2018-07-22T23:30:39.338Z,18.30
2018-07-22T23:33:08.633Z,18.30
2018-07-22T23:35:37.322Z,19.30
2018-07-22T23:38:06.188Z,17.30
2018-07-22T23:40:34.627Z,17.97
2018-07-22T23:43:03.199Z,18.60
2018-07-22T23:45:31.727Z,17.73
2018-07-22T23:48:00.246Z,19.40
2018-07-22T23:50:29.205Z,18.73
2018-07-22T23:52:57.754Z,17.77
2018-07-22T23:55:26.239Z,18.23
2018-07-22T23:57:54.883Z,18.70
